Time;durP1;ratioP1;P1;durP2;ratioP2;P2;SDS_P1;SDS_P2;PMS_P1;PMS_P2;Temp;Humidity;BMP_temperature;BMP_pressure;BME280_temperature;BME280_humidity;BME280_pressure;Samples;Min_cycle;Max_cycle;Signal;HPM_P1;HPM_P2
2022/04/29 00:02:18;;;;;;;3.35;2.83;;;;;;;10.82;48.07;100083.45;1714935;82;20948;-62
2022/04/29 00:04:45;;;;;;;3.27;2.80;;;;;;;10.83;48.04;100093.11;1704718;82;21301;-61
2022/04/29 00:07:14;;;;;;;4.25;3.17;;;;;;;10.84;48.07;100092.13;1711146;82;20944;-64
2022/04/29 00:09:42;;;;;;;5.95;3.58;;;;;;;10.83;48.27;100091.78;1715573;81;20955;-64
2022/04/29 00:12:10;;;;;;;3.47;2.65;;;;;;;10.84;48.28;100098.79;1719890;82;21065;-61
2022/04/29 00:14:38;;;;;;;3.05;2.75;;;;;;;10.85;48.10;100099.11;1722802;82;20899;-61
2022/04/29 00:17:06;;;;;;;3.15;2.47;;;;;;;10.88;48.18;100105.45;1732356;81;20982;-63
2022/04/29 00:19:33;;;;;;;3.95;2.30;;;;;;;10.86;48.23;100090.63;1730118;81;21433;-62
2022/04/29 00:22:01;;;;;;;3.98;2.55;;;;;;;10.85;48.13;100092.45;1732685;81;20896;-61
2022/04/29 00:24:29;;;;;;;6.15;2.90;;;;;;;10.84;48.22;100108.10;1751351;82;21485;-60
2022/04/29 00:26:55;;;;;;;3.95;2.45;;;;;;;10.86;48.29;100099.45;1724914;81;21508;-63
2022/04/29 00:29:22;;;;;;;3.00;2.40;;;;;;;10.84;48.49;100101.45;1722768;82;21213;-60
2022/04/29 00:31:49;;;;;;;5.10;2.10;;;;;;;10.83;48.60;100098.44;1731945;81;20931;-65
2022/04/29 00:34:17;;;;;;;2.67;2.00;;;;;;;10.81;48.77;100100.42;1735125;81;21019;-65
2022/04/29 00:36:44;;;;;;;3.08;2.05;;;;;;;10.75;49.04;100095.72;1722815;82;21001;-63
2022/04/29 00:39:11;;;;;;;1.80;1.52;;;;;;;10.72;49.11;100093.37;1722810;82;21001;-61
2022/04/29 00:41:39;;;;;;;2.25;1.60;;;;;;;10.68;49.15;100092.52;1722858;82;21065;-64
2022/04/29 00:44:08;;;;;;;2.52;1.95;;;;;;;10.67;49.04;100093.49;1728338;81;20966;-61
2022/04/29 00:46:38;;;;;;;1.92;1.40;;;;;;;10.66;49.13;100086.03;1728785;81;20903;-61
2022/04/29 00:49:07;;;;;;;2.80;2.15;;;;;;;10.64;49.26;100084.52;1722722;82;20911;-64
2022/04/29 00:51:34;;;;;;;2.20;1.32;;;;;;;10.57;49.38;100080.30;1721443;82;20888;-64
2022/04/29 00:54:06;;;;;;;1.67;1.57;;;;;;;10.53;49.49;100077.63;1733996;81;21207;-61
2022/04/29 00:56:38;;;;;;;2.62;2.02;;;;;;;10.52;49.50;100071.46;1725621;81;20859;-62
2022/04/29 00:59:15;;;;;;;1.42;1.22;;;;;;;10.52;49.35;100074.61;1722869;82;20918;-61
2022/04/29 01:01:44;;;;;;;4.08;1.60;;;;;;;10.47;49.22;100068.92;1749545;82;21588;-61
2022/04/29 01:04:20;;;;;;;2.90;1.82;;;;;;;10.46;49.22;100068.57;1750223;81;21549;-62
2022/04/29 01:06:48;;;;;;;2.40;1.45;;;;;;;10.44;49.26;100067.90;1737536;82;21234;-62
2022/04/29 01:09:15;;;;;;;2.02;1.32;;;;;;;10.45;49.27;100069.58;1722544;82;21504;-63
2022/04/29 01:11:42;;;;;;;2.22;1.37;;;;;;;10.43;49.30;100064.89;1722678;82;20982;-62
2022/04/29 01:14:10;;;;;;;1.37;1.27;;;;;;;10.46;49.33;100067.24;1742869;82;21537;-63
2022/04/29 01:16:41;;;;;;;2.12;1.30;;;;;;;10.47;49.24;100058.28;1726981;82;20950;-63
2022/04/29 01:19:07;;;;;;;2.72;1.60;;;;;;;10.48;49.01;100059.97;1720364;82;21177;-64
2022/04/29 01:21:34;;;;;;;1.50;1.40;;;;;;;10.47;48.91;100063.11;1720291;82;20855;-64
2022/04/29 01:24:02;;;;;;;1.98;1.52;;;;;;;10.48;48.87;100057.30;1727872;82;21429;-62
2022/04/29 01:26:29;;;;;;;2.72;1.52;;;;;;;10.47;48.84;100055.13;1727295;82;20982;-64
2022/04/29 01:28:56;;;;;;;1.90;1.70;;;;;;;10.44;48.99;100050.61;1725686;82;21094;-64
2022/04/29 01:31:23;;;;;;;2.52;1.15;;;;;;;10.43;48.89;100049.77;1720455;82;21164;-62
2022/04/29 01:33:50;;;;;;;2.37;1.30;;;;;;;10.39;48.96;100053.74;1720453;82;20934;-61
2022/04/29 01:36:17;;;;;;;3.25;1.57;;;;;;;10.36;49.16;100045.23;1730696;82;20935;-62
2022/04/29 01:38:44;;;;;;;1.87;1.30;;;;;;;10.31;49.22;100044.86;1720460;82;21512;-62
2022/04/29 01:41:13;;;;;;;2.45;1.60;;;;;;;10.26;49.22;100046.66;1720483;82;20935;-62
2022/04/29 01:43:41;;;;;;;2.72;1.77;;;;;;;10.24;49.29;100050.47;1720605;82;21130;-63
2022/04/29 01:46:10;;;;;;;1.90;1.57;;;;;;;10.20;49.31;100047.27;1720349;82;20939;-63
2022/04/29 01:48:47;;;;;;;2.05;1.60;;;;;;;10.17;49.45;100047.57;1722580;82;21559;-62
2022/04/29 01:51:33;;;;;;;1.75;1.40;;;;;;;10.15;49.44;100051.38;1720691;82;26302;-63
2022/04/29 01:54:00;;;;;;;5.17;1.98;;;;;;;10.11;49.42;100052.66;1728999;82;21039;-64
2022/04/29 01:56:32;;;;;;;2.80;1.65;;;;;;;10.08;49.46;100050.30;1720397;82;21172;-62
2022/04/29 01:59:01;;;;;;;2.98;2.00;;;;;;;10.04;49.62;100052.94;1734206;82;20876;-64
2022/04/29 02:01:30;;;;;;;3.27;2.15;;;;;;;10.02;49.73;100053.55;1721295;81;20978;-63
2022/04/29 02:04:01;;;;;;;2.95;2.08;;;;;;;10.01;49.87;100047.91;1720385;82;20891;-64
2022/04/29 02:06:29;;;;;;;2.62;1.95;;;;;;;9.97;50.11;100044.72;1720548;82;20935;-63
2022/04/29 02:08:57;;;;;;;2.55;1.60;;;;;;;9.92;50.08;100046.52;1743382;81;20896;-63
2022/04/29 02:11:26;;;;;;;4.75;2.20;;;;;;;9.89;50.14;100046.81;1734098;82;20954;-64
2022/04/29 02:13:55;;;;;;;3.70;2.33;;;;;;;9.85;50.14;100045.95;1724755;82;20940;-63
2022/04/29 02:16:26;;;;;;;3.02;2.12;;;;;;;9.81;50.17;100045.41;1732410;82;20969;-64
2022/04/29 02:18:54;;;;;;;2.83;2.27;;;;;;;9.76;50.25;100037.05;1731918;81;20837;-64
2022/04/29 02:21:22;;;;;;;2.58;2.02;;;;;;;9.73;50.46;100040.50;1704859;82;20943;-64
2022/04/29 02:23:49;;;;;;;6.12;2.20;;;;;;;9.67;50.60;100036.62;1710349;82;21147;-63
2022/04/29 02:26:16;;;;;;;2.22;1.80;;;;;;;9.63;50.73;100034.42;1704669;82;21517;-64
2022/04/29 02:28:43;;;;;;;4.70;2.40;;;;;;;9.61;50.92;100027.95;1704541;82;21014;-63
2022/04/29 02:31:11;;;;;;;4.45;2.20;;;;;;;9.52;51.24;100028.83;1715036;82;21012;-64
2022/04/29 02:33:38;;;;;;;3.12;1.98;;;;;;;9.48;51.37;100026.64;1723554;82;21100;-61
2022/04/29 02:36:07;;;;;;;1.90;1.70;;;;;;;9.44;51.45;100031.92;1709707;82;20916;-61
2022/04/29 02:38:35;;;;;;;2.70;2.00;;;;;;;9.38;51.42;100030.69;1723663;82;21449;-61
2022/04/29 02:41:03;;;;;;;3.55;1.87;;;;;;;9.31;51.49;100031.77;1723574;82;20960;-62
2022/04/29 02:43:29;;;;;;;4.75;2.30;;;;;;;9.28;51.49;100032.58;1704464;82;20944;-62
2022/04/29 02:45:56;;;;;;;5.72;2.30;;;;;;;9.25;51.50;100031.02;1723331;82;21381;-64
2022/04/29 02:48:23;;;;;;;2.60;2.10;;;;;;;9.23;51.42;100030.34;1713471;82;21000;-62
2022/04/29 02:50:50;;;;;;;2.47;1.95;;;;;;;9.22;51.29;100027.84;1707135;82;21517;-62
2022/04/29 02:53:18;;;;;;;8.73;2.52;;;;;;;9.23;51.30;100034.81;1704532;82;20959;-63
2022/04/29 02:55:45;;;;;;;3.42;2.15;;;;;;;9.23;51.28;100036.13;1735647;82;20999;-64
2022/04/29 02:58:22;;;;;;;3.37;2.40;;;;;;;9.23;51.25;100034.81;1682092;82;21133;-62
2022/04/29 03:00:49;;;;;;;2.80;2.20;;;;;;;9.22;51.20;100041.13;1711019;82;20987;-64
2022/04/29 03:03:17;;;;;;;2.87;1.98;;;;;;;9.23;51.08;100040.12;1704566;82;20979;-64
2022/04/29 03:05:45;;;;;;;2.37;2.05;;;;;;;9.25;51.04;100041.64;1704600;82;21015;-64
2022/04/29 03:08:13;;;;;;;3.95;2.30;;;;;;;9.29;51.03;100040.86;1704836;82;21096;-64
2022/04/29 03:10:41;;;;;;;2.52;2.30;;;;;;;9.34;51.01;100042.58;1721245;82;21253;-63
2022/04/29 03:13:09;;;;;;;4.65;2.30;;;;;;;9.37;50.99;100032.98;1708297;82;21541;-63
2022/04/29 03:15:39;;;;;;;3.70;2.40;;;;;;;9.41;50.92;100035.67;1722142;82;20990;-62
2022/04/29 03:18:19;;;;;;;4.55;2.15;;;;;;;9.44;50.87;100038.56;1722599;82;21009;-61
2022/04/29 03:20:50;;;;;;;3.00;2.10;;;;;;;9.45;50.89;100033.08;1732838;81;21528;-61
2022/04/29 03:23:19;;;;;;;3.08;1.90;;;;;;;9.50;50.85;100034.80;1727179;82;21857;-61
2022/04/29 03:25:54;;;;;;;6.70;2.37;;;;;;;9.54;50.74;100039.33;1722766;82;20932;-63
2022/04/29 03:28:21;;;;;;;2.33;1.98;;;;;;;9.57;50.64;100039.84;1722699;82;20938;-61
2022/04/29 03:30:50;;;;;;;2.05;1.65;;;;;;;9.62;50.56;100038.89;1726012;81;21477;-61
2022/04/29 03:33:19;;;;;;;2.52;2.08;;;;;;;9.67;50.45;100039.27;1724673;81;21026;-61
2022/04/29 03:35:47;;;;;;;2.75;1.52;;;;;;;9.74;50.37;100045.67;1722664;82;21188;-62
2022/04/29 03:38:25;;;;;;;2.55;1.87;;;;;;;9.89;50.26;100041.50;1722651;81;20891;-63
2022/04/29 03:40:53;;;;;;;1.65;1.52;;;;;;;10.11;50.00;100046.00;1734150;81;21003;-63
2022/04/29 03:43:22;;;;;;;1.82;1.52;;;;;;;10.35;49.69;100043.05;1730185;83;20904;-64
2022/04/29 03:45:52;;;;;;;4.15;1.80;;;;;;;10.65;49.16;100040.45;1709155;82;20935;-62
2022/04/29 03:48:21;;;;;;;3.67;1.77;;;;;;;10.95;48.58;100034.61;1720002;83;21249;-64
2022/04/29 03:50:58;;;;;;;2.27;1.40;;;;;;;11.25;47.74;100038.58;1728845;83;20944;-59
2022/04/29 03:53:25;;;;;;;2.47;1.82;;;;;;;11.51;47.18;100031.33;1712699;82;21122;-61
2022/04/29 03:55:54;;;;;;;2.50;1.40;;;;;;;11.74;46.72;100031.07;1704332;83;20936;-64
2022/04/29 03:58:22;;;;;;;2.15;1.40;;;;;;;12.01;46.28;100032.60;1702408;83;20865;-61
2022/04/29 04:00:52;;;;;;;1.80;1.70;;;;;;;12.30;45.76;100032.94;1702582;83;20896;-64
2022/04/29 04:03:21;;;;;;;1.57;1.37;;;;;;;12.62;45.07;100026.70;1699037;83;20920;-65
2022/04/29 04:08:35;;;;;;;1.57;1.47;;;;;;;13.30;43.93;100027.50;1707854;83;21674;-64
2022/04/29 04:11:03;;;;;;;2.02;1.57;;;;;;;13.66;43.02;100034.50;1730271;82;20932;-63
2022/04/29 04:13:31;;;;;;;3.40;2.77;;;;;;;13.99;42.40;100031.92;1727507;82;21247;-65
2022/04/29 04:16:05;;;;;;;4.83;2.60;;;;;;;14.34;41.81;100035.33;1667799;83;20955;-64
2022/04/29 04:18:34;;;;;;;3.27;2.00;;;;;;;14.74;41.04;100036.80;1708443;82;20987;-63
2022/04/29 04:21:01;;;;;;;2.27;1.80;;;;;;;15.11;40.33;100031.35;1704960;82;21105;-60
2022/04/29 04:23:28;;;;;;;1.65;1.20;;;;;;;15.46;39.31;100037.78;1705100;82;21442;-62
2022/04/29 04:25:57;;;;;;;1.45;1.10;;;;;;;15.77;38.78;100040.23;1714192;82;21256;-64
2022/04/29 04:28:25;;;;;;;1.52;1.15;;;;;;;16.04;37.13;100036.77;1705094;82;21076;-61
2022/04/29 04:30:54;;;;;;;3.52;1.15;;;;;;;16.25;36.84;100045.33;1705567;82;20943;-61
2022/04/29 04:33:22;;;;;;;2.85;1.52;;;;;;;16.47;36.02;100038.92;1705188;82;20959;-65
2022/04/29 04:35:51;;;;;;;1.80;1.25;;;;;;;16.59;35.89;100040.91;1707432;82;20960;-63
2022/04/29 04:38:19;;;;;;;3.40;1.12;;;;;;;16.77;35.52;100038.22;1707787;82;20979;-63
2022/04/29 04:40:53;;;;;;;1.20;0.95;;;;;;;16.93;35.04;100033.37;1714077;82;21439;-62
2022/04/29 04:43:20;;;;;;;1.57;1.10;;;;;;;17.12;34.89;100042.59;1707229;82;20993;-62
2022/04/29 04:45:51;;;;;;;1.98;1.20;;;;;;;17.37;34.75;100035.67;1723414;82;20939;-62
2022/04/29 04:48:19;;;;;;;1.30;0.95;;;;;;;17.66;33.93;100039.95;1700998;82;21040;-63
2022/04/29 04:51:06;;;;;;;2.20;1.05;;;;;;;17.94;33.39;100039.28;1728081;82;20971;-65
2022/04/29 04:53:34;;;;;;;3.67;1.30;;;;;;;18.16;32.99;100048.87;1733527;82;21454;-61
2022/04/29 04:56:03;;;;;;;1.50;1.17;;;;;;;18.35;32.55;100038.61;1713085;82;20983;-63
2022/04/29 04:58:33;;;;;;;1.87;1.32;;;;;;;18.60;32.20;100042.06;1710357;82;21014;-62
2022/04/29 05:01:02;;;;;;;1.32;1.20;;;;;;;18.78;31.56;100040.39;1709675;82;20955;-62
2022/04/29 05:03:49;;;;;;;2.77;1.10;;;;;;;18.98;31.45;100042.52;1705479;82;20940;-64
2022/04/29 05:06:36;;;;;;;2.12;1.12;;;;;;;19.25;31.00;100042.45;1723252;82;21484;-63
2022/04/29 05:09:04;;;;;;;1.62;1.17;;;;;;;19.43;30.45;100046.15;1730527;82;20983;-63
2022/04/29 05:11:33;;;;;;;2.85;1.02;;;;;;;19.59;30.51;100049.72;1729600;82;20944;-64
2022/04/29 05:14:03;;;;;;;2.75;0.90;;;;;;;19.81;30.51;100049.41;1702488;82;20980;-63
2022/04/29 05:16:32;;;;;;;2.25;1.35;;;;;;;20.08;30.21;100056.29;1703551;83;21920;-64
2022/04/29 05:19:17;;;;;;;2.08;1.10;;;;;;;20.39;29.99;100059.00;1704895;82;20996;-64
2022/04/29 05:21:46;;;;;;;4.08;1.17;;;;;;;20.80;29.42;100057.11;1707053;82;21106;-63
2022/04/29 05:24:13;;;;;;;1.20;1.10;;;;;;;21.21;29.06;100057.34;1703916;82;20990;-63
2022/04/29 05:26:51;;;;;;;1.65;1.10;;;;;;;21.70;28.34;100059.02;1704704;82;20968;-61
2022/04/29 05:29:35;;;;;;;1.22;1.10;;;;;;;22.12;27.70;100059.41;1659633;84;21485;-65
2022/04/29 05:32:11;;;;;;;4.15;1.62;;;;;;;22.47;27.08;100051.89;1678022;81;20995;-65
2022/04/29 05:34:45;;;;;;;6.35;1.32;;;;;;;22.74;26.59;100051.23;1663639;82;21536;-66
2022/04/29 05:37:32;;;;;;;4.40;1.20;;;;;;;22.97;26.49;100057.17;1721750;82;21403;-64
2022/04/29 05:43:02;;;;;;;3.05;1.00;;;;;;;23.49;25.51;100066.77;1723644;82;21261;-63
2022/04/29 05:45:30;;;;;;;2.98;1.27;;;;;;;23.73;25.50;100066.97;1710691;82;20947;-63
2022/04/29 05:47:57;;;;;;;1.65;1.45;;;;;;;24.02;25.32;100069.98;1705990;82;21553;-65
2022/04/29 05:50:26;;;;;;;2.52;1.12;;;;;;;24.32;24.76;100071.95;1707800;82;20900;-65
2022/04/29 05:52:55;;;;;;;1.85;1.47;;;;;;;24.52;24.31;100071.45;1718675;81;20974;-63
2022/04/29 05:55:23;;;;;;;3.70;1.27;;;;;;;24.73;24.09;100074.80;1710198;83;20873;-64
2022/04/29 05:57:52;;;;;;;4.53;1.45;;;;;;;24.89;24.00;100072.64;1698481;83;20849;-63
2022/04/29 06:00:20;;;;;;;3.22;1.35;;;;;;;25.09;23.83;100072.10;1720061;83;21041;-65
2022/04/29 06:02:50;;;;;;;4.15;1.17;;;;;;;25.18;23.76;100076.86;1711555;83;21154;-64
2022/04/29 06:05:18;;;;;;;2.12;1.20;;;;;;;25.40;23.58;100070.08;1707945;83;21059;-63
2022/04/29 06:07:48;;;;;;;3.55;1.50;;;;;;;25.27;23.65;100077.79;1700400;83;21228;-63
2022/04/29 06:10:22;;;;;;;2.25;1.27;;;;;;;25.49;23.20;100069.14;1716750;81;20975;-64
2022/04/29 06:12:51;;;;;;;10.48;1.50;;;;;;;25.62;22.83;100068.23;1713602;82;21454;-61
2022/04/29 06:15:20;;;;;;;2.37;1.40;;;;;;;25.85;22.90;100068.49;1714784;81;21078;-63
2022/04/29 06:17:51;;;;;;;1.87;1.40;;;;;;;26.23;22.72;100068.91;1694578;82;20951;-62
2022/04/29 06:20:36;;;;;;;3.50;1.53;;;;;;;26.71;21.83;100070.70;1718266;83;21268;-63
2022/04/29 06:23:21;;;;;;;1.37;1.12;;;;;;;27.11;21.09;100069.66;1719799;83;20895;-65
2022/04/29 06:25:48;;;;;;;2.75;1.32;;;;;;;27.34;20.45;100070.60;1715296;83;21466;-62
2022/04/29 06:28:16;;;;;;;5.67;1.40;;;;;;;27.33;20.36;100070.84;1728266;82;21006;-62
2022/04/29 06:30:44;;;;;;;2.72;1.27;;;;;;;27.38;20.39;100073.06;1718065;83;21030;-63
2022/04/29 06:33:16;;;;;;;1.87;1.07;;;;;;;27.32;20.55;100077.42;1691600;83;21127;-62
2022/04/29 06:35:47;;;;;;;2.83;1.40;;;;;;;27.06;20.48;100072.36;1711842;82;20978;-68
2022/04/29 06:38:15;;;;;;;2.35;1.12;;;;;;;26.98;20.23;100077.48;1720051;83;20947;-63
2022/04/29 06:40:58;;;;;;;2.00;1.30;;;;;;;26.88;20.35;100072.22;1715818;83;21445;-62
2022/04/29 06:43:38;;;;;;;2.45;1.10;;;;;;;27.00;20.42;100077.50;1710008;82;21041;-65
2022/04/29 06:46:19;;;;;;;3.25;1.50;;;;;;;27.26;20.52;100075.73;1695053;82;21231;-68
2022/04/29 06:49:04;;;;;;;6.00;1.70;;;;;;;27.68;20.24;100083.89;1719178;83;21378;-63
2022/04/29 06:51:49;;;;;;;1.85;1.37;;;;;;;27.94;19.77;100074.15;1728165;82;21540;-62
2022/04/29 06:54:18;;;;;;;2.00;1.47;;;;;;;28.18;19.48;100071.77;1727654;82;21005;-63
2022/04/29 06:56:47;;;;;;;1.22;1.12;;;;;;;28.53;19.35;100070.42;1728148;82;20979;-63
2022/04/29 06:59:15;;;;;;;1.30;1.20;;;;;;;28.88;18.98;100080.58;1727925;83;21182;-64
2022/04/29 07:01:43;;;;;;;3.50;1.20;;;;;;;29.13;18.70;100076.95;1724004;83;21117;-65
2022/04/29 07:04:11;;;;;;;2.12;1.10;;;;;;;29.43;18.37;100078.30;1700081;83;21013;-61
2022/04/29 07:06:38;;;;;;;1.80;1.32;;;;;;;29.59;18.12;100075.73;1699913;83;21038;-63
2022/04/29 07:09:06;;;;;;;1.57;1.00;;;;;;;29.76;18.00;100076.23;1700010;83;21017;-63
2022/04/29 07:11:48;;;;;;;2.00;1.20;;;;;;;30.00;17.72;100079.16;1707705;82;21528;-64
2022/04/29 07:14:17;;;;;;;3.98;1.25;;;;;;;30.19;17.62;100078.73;1699459;83;20982;-64
2022/04/29 07:16:58;;;;;;;4.85;1.50;;;;;;;30.51;17.44;100084.59;1723438;82;21542;-66
2022/04/29 07:19:30;;;;;;;4.70;1.60;;;;;;;30.90;17.23;100087.81;1696863;82;20999;-65
2022/04/29 07:21:58;;;;;;;6.05;1.35;;;;;;;31.17;16.92;100085.39;1704534;82;20959;-62
2022/04/29 07:24:25;;;;;;;4.22;1.40;;;;;;;31.35;16.47;100091.52;1704502;82;21935;-62
2022/04/29 07:26:52;;;;;;;5.08;1.62;;;;;;;31.36;16.38;100089.59;1704541;82;20884;-64
2022/04/29 07:29:21;;;;;;;1.55;1.25;;;;;;;31.36;16.50;100091.78;1704608;82;21414;-65
2022/04/29 07:31:50;;;;;;;2.02;1.75;;;;;;;31.51;16.27;100088.89;1705070;82;21539;-62
2022/04/29 07:42:54;;;;;;;1.95;1.30;;;;;;;31.94;16.02;100083.39;1732860;81;20940;-63
2022/04/29 07:45:22;;;;;;;2.02;1.30;;;;;;;32.10;15.76;100079.32;1732623;81;20955;-64
2022/04/29 07:48:08;;;;;;;1.70;1.30;;;;;;;32.17;15.58;100078.41;1732736;82;21057;-62
2022/04/29 07:50:36;;;;;;;1.50;1.40;;;;;;;32.30;15.61;100084.55;1714151;82;21152;-62
2022/04/29 07:53:05;;;;;;;3.15;1.22;;;;;;;32.40;15.43;100086.31;1723235;82;20912;-62
2022/04/29 07:55:32;;;;;;;6.00;1.57;;;;;;;32.44;15.35;100080.45;1714131;82;20952;-65
2022/04/29 07:58:00;;;;;;;3.15;1.35;;;;;;;32.43;15.27;100081.59;1732732;82;21004;-67
2022/04/29 08:00:28;;;;;;;2.22;1.50;;;;;;;32.51;15.31;100080.36;1714416;82;21007;-61
2022/04/29 08:02:55;;;;;;;3.55;1.60;;;;;;;32.73;15.11;100069.53;1704806;82;21095;-64
2022/04/29 08:05:24;;;;;;;1.40;1.30;;;;;;;33.01;15.12;100064.09;1714420;82;21421;-64
2022/04/29 08:07:51;;;;;;;2.58;1.37;;;;;;;33.35;14.92;100063.16;1712822;82;21418;-64
2022/04/29 08:10:18;;;;;;;3.10;1.72;;;;;;;33.50;14.65;100063.67;1732587;82;20960;-66
2022/04/29 08:12:44;;;;;;;2.33;1.80;;;;;;;33.43;14.52;100054.17;1732845;81;21049;-64
2022/04/29 08:15:19;;;;;;;4.53;1.35;;;;;;;33.36;14.49;100057.92;1705314;82;22069;-65
2022/04/29 08:17:57;;;;;;;4.20;1.50;;;;;;;33.19;14.65;100057.72;1732230;82;20923;-64
2022/04/29 08:20:24;;;;;;;2.80;1.67;;;;;;;33.15;14.89;100052.55;1733036;82;21000;-65
2022/04/29 08:22:52;;;;;;;5.33;1.70;;;;;;;33.29;14.85;100049.25;1732765;82;21019;-65
2022/04/29 08:25:20;;;;;;;5.00;2.10;;;;;;;33.51;14.78;100045.19;1732944;81;20959;-63
2022/04/29 08:27:51;;;;;;;4.55;1.90;;;;;;;33.75;14.70;100047.19;1732912;82;21966;-64
2022/04/29 08:30:18;;;;;;;2.27;1.40;;;;;;;34.01;14.42;100040.53;1732819;82;20931;-63
2022/04/29 08:32:47;;;;;;;4.50;1.90;;;;;;;34.25;14.46;100044.42;1732939;82;20987;-63
2022/04/29 08:35:30;;;;;;;3.12;1.60;;;;;;;34.64;14.11;100036.28;1732092;82;21014;-65
2022/04/29 08:37:58;;;;;;;2.83;1.90;;;;;;;34.79;13.69;100039.20;1732778;81;20904;-63
2022/04/29 08:40:27;;;;;;;2.02;1.60;;;;;;;34.64;13.78;100030.76;1732436;82;21337;-65
2022/04/29 08:42:57;;;;;;;2.45;1.70;;;;;;;34.45;13.97;100022.64;1732696;81;20919;-64
2022/04/29 08:45:24;;;;;;;4.15;2.33;;;;;;;34.73;13.98;100025.52;1732649;82;21078;-62
2022/04/29 08:48:09;;;;;;;5.28;4.05;;;;;;;34.11;14.09;100027.34;1732855;81;20974;-65
2022/04/29 08:50:38;;;;;;;5.25;2.70;;;;;;;32.29;15.33;100030.05;1723894;82;21010;-65
2022/04/29 08:53:06;;;;;;;2.30;1.92;;;;;;;32.56;15.20;100028.53;1732774;81;21415;-64
2022/04/29 08:58:37;;;;;;;2.95;1.90;;;;;;;32.96;14.59;100029.16;1732821;81;21481;-64
2022/04/29 09:01:06;;;;;;;7.85;2.35;;;;;;;33.09;14.37;100027.56;1732636;81;20904;-64
2022/04/29 09:03:34;;;;;;;2.92;1.50;;;;;;;33.02;14.17;100021.06;1732709;82;20932;-64
2022/04/29 09:06:04;;;;;;;2.30;1.98;;;;;;;31.80;14.96;100030.21;1732846;81;20933;-65
2022/04/29 09:08:45;;;;;;;2.65;1.90;;;;;;;31.58;15.18;100026.65;1732661;81;20975;-65
2022/04/29 09:11:25;;;;;;;1.72;1.50;;;;;;;32.29;14.85;100021.78;1732745;81;20880;-64
2022/04/29 09:13:51;;;;;;;4.92;2.05;;;;;;;31.63;15.54;100020.53;1732755;82;20968;-63
2022/04/29 09:16:19;;;;;;;4.17;2.00;;;;;;;32.88;14.58;100021.59;1732728;82;21545;-66
2022/04/29 09:18:49;;;;;;;2.47;2.02;;;;;;;33.53;14.20;100018.11;1732721;82;21108;-65
2022/04/29 09:21:20;;;;;;;6.00;2.00;;;;;;;34.23;13.83;100019.08;1732058;82;20943;-63
2022/04/29 09:24:10;;;;;;;6.40;2.58;;;;;;;34.78;13.55;100010.78;1732569;82;21470;-63
2022/04/29 09:26:51;;;;;;;2.80;2.02;;;;;;;35.31;12.74;100009.30;1730315;82;20936;-63
2022/04/29 09:29:26;;;;;;;4.83;2.70;;;;;;;35.48;12.53;100009.92;1732884;81;21545;-65
2022/04/29 09:32:11;;;;;;;2.83;2.37;;;;;;;35.40;12.37;100010.16;1732743;82;21265;-63
2022/04/29 09:34:54;;;;;;;3.22;2.95;;;;;;;35.06;12.75;100005.33;1705537;82;21647;-65
2022/04/29 09:37:23;;;;;;;3.77;2.80;;;;;;;35.30;12.80;99999.39;1733118;81;21486;-63
2022/04/29 09:39:55;;;;;;;3.40;2.85;;;;;;;35.67;12.68;99998.01;1732758;81;20991;-65
2022/04/29 09:42:22;;;;;;;2.40;2.20;;;;;;;35.98;12.43;100002.83;1732209;81;21009;-62
2022/04/29 09:44:49;;;;;;;4.33;3.22;;;;;;;35.51;12.59;100004.55;1704606;82;21518;-61
2022/04/29 09:47:19;;;;;;;2.22;2.02;;;;;;;36.11;11.81;100000.50;1723185;82;21388;-65
2022/04/29 09:49:58;;;;;;;1.55;1.45;;;;;;;35.03;12.01;100007.88;1732744;81;21074;-64
2022/04/29 09:52:26;;;;;;;5.12;1.90;;;;;;;35.12;12.01;99998.50;1732828;82;20972;-65
2022/04/29 09:54:53;;;;;;;3.17;2.40;;;;;;;35.37;11.74;99998.91;1732924;82;21398;-63
2022/04/29 09:57:23;;;;;;;4.05;2.55;;;;;;;34.14;12.42;99994.97;1732659;82;21256;-64
2022/04/29 09:59:54;;;;;;;3.00;2.55;;;;;;;32.61;13.00;100006.41;1732678;82;20975;-62
2022/04/29 10:02:23;;;;;;;5.35;4.15;;;;;;;31.11;13.76;100009.06;1732697;82;20948;-64
2022/04/29 10:04:52;;;;;;;3.00;2.47;;;;;;;29.83;14.71;99999.16;1732760;82;20900;-65
2022/04/29 10:07:23;;;;;;;4.53;2.20;;;;;;;29.69;14.97;100000.88;1732856;82;21398;-65
2022/04/29 10:10:00;;;;;;;2.75;2.10;;;;;;;28.64;15.88;100002.30;1732790;82;21540;-65
2022/04/29 10:12:28;;;;;;;2.75;2.40;;;;;;;28.18;16.65;99998.47;1732697;82;20971;-63
2022/04/29 10:14:59;;;;;;;2.50;2.08;;;;;;;27.93;16.78;99995.11;1729753;81;20931;-62
2022/04/29 10:23:12;;;;;;;4.45;2.10;;;;;;;27.35;17.38;99996.31;1751478;82;21037;-65
2022/04/29 10:25:43;;;;;;;5.03;2.15;;;;;;;26.93;17.58;99995.81;1744345;82;20931;-65
2022/04/29 10:28:21;;;;;;;2.62;2.20;;;;;;;26.38;18.14;99991.88;1722797;82;20897;-64
2022/04/29 10:31:00;;;;;;;10.85;2.40;;;;;;;25.89;18.52;99982.40;1694882;83;21053;-65
2022/04/29 10:33:27;;;;;;;2.60;2.40;;;;;;;25.58;19.03;99985.35;1743430;82;20958;-66
2022/04/29 10:35:56;;;;;;;3.00;1.90;;;;;;;25.56;19.44;99985.33;1751589;82;21244;-63
2022/04/29 10:38:35;;;;;;;3.42;1.62;;;;;;;25.57;19.37;99981.53;1751382;82;21101;-62
2022/04/29 10:41:17;;;;;;;2.75;2.00;;;;;;;25.49;19.06;99981.98;1751284;82;20927;-65
2022/04/29 10:43:51;;;;;;;10.45;1.92;;;;;;;25.10;18.78;99981.21;1751381;82;20935;-65
2022/04/29 10:46:38;;;;;;;2.30;1.77;;;;;;;24.74;19.37;99981.77;1751595;82;21591;-62
2022/04/29 10:49:13;;;;;;;5.12;1.27;;;;;;;24.59;19.42;99986.44;1751376;82;21696;-64
2022/04/29 10:51:48;;;;;;;4.83;1.80;;;;;;;24.38;19.55;99978.50;1745143;82;20931;-64
2022/04/29 10:54:40;;;;;;;1.85;1.65;;;;;;;24.16;19.78;99978.14;1750772;82;21010;-64
2022/04/29 10:57:41;;;;;;;3.20;2.60;;;;;;;23.89;20.03;99984.17;1751455;82;21010;-64
2022/04/29 11:00:12;;;;;;;4.28;2.50;;;;;;;23.64;20.80;99985.08;1751308;82;20962;-62
2022/04/29 11:02:44;;;;;;;11.63;2.65;;;;;;;23.57;21.29;99983.58;1750294;82;21978;-62
2022/04/29 11:05:34;;;;;;;3.90;2.27;;;;;;;23.42;21.67;99982.72;1751390;82;20942;-63
2022/04/29 11:08:10;;;;;;;3.40;2.40;;;;;;;23.33;21.82;99979.52;1744970;82;20939;-64
2022/04/29 11:10:58;;;;;;;3.95;2.05;;;;;;;23.21;21.84;99981.98;1751372;82;21046;-62
2022/04/29 11:13:27;;;;;;;3.30;2.15;;;;;;;23.10;21.68;99978.80;1751569;82;20962;-65
2022/04/29 11:16:14;;;;;;;2.22;1.70;;;;;;;23.03;21.71;99985.69;1750367;81;21801;-62
2022/04/29 11:19:21;;;;;;;2.33;1.90;;;;;;;22.87;21.84;99982.88;1747897;82;21082;-65
2022/04/29 11:24:47;;;;;;;4.22;2.25;;;;;;;22.65;22.03;99988.09;1749073;82;20111;-62
2022/04/29 11:27:29;;;;;;;10.18;2.90;;;;;;;22.40;22.40;99975.25;1747504;82;21466;-62
2022/04/29 11:30:01;;;;;;;5.37;1.70;;;;;;;22.38;22.68;99971.95;1749396;82;21244;-64
2022/04/29 11:32:44;;;;;;;3.50;2.05;;;;;;;22.31;22.92;99972.61;1743728;82;21252;-62
2022/04/29 11:35:10;;;;;;;3.10;2.35;;;;;;;22.20;23.16;99973.41;1748988;82;20947;-62
2022/04/29 11:37:37;;;;;;;3.33;2.72;;;;;;;22.12;23.40;99974.59;1748950;82;21111;-64
2022/04/29 11:40:07;;;;;;;3.25;2.50;;;;;;;22.10;23.53;99970.77;1749005;82;20911;-62
2022/04/29 11:42:34;;;;;;;3.35;2.30;;;;;;;22.06;23.72;99972.27;1722204;82;21460;-65
2022/04/29 11:45:09;;;;;;;2.58;2.10;;;;;;;22.08;24.07;99968.80;1748964;82;21002;-63
2022/04/29 11:47:36;;;;;;;2.58;1.90;;;;;;;22.23;24.16;99966.18;1748956;82;20975;-62
2022/04/29 11:50:08;;;;;;;5.60;1.92;;;;;;;22.44;23.92;99965.08;1749180;82;20943;-62
2022/04/29 11:52:36;;;;;;;7.70;2.25;;;;;;;22.60;23.23;99951.34;1749546;82;20930;-63
2022/04/29 11:55:19;;;;;;;3.72;2.00;;;;;;;22.77;23.02;99949.58;1749291;82;21089;-63
2022/04/29 11:57:54;;;;;;;1.65;1.42;;;;;;;22.88;22.75;99946.56;1749075;82;20871;-65
2022/04/29 12:00:25;;;;;;;2.47;1.77;;;;;;;22.93;22.53;99947.50;1748909;82;21563;-62
2022/04/29 12:02:53;;;;;;;5.28;1.80;;;;;;;22.97;22.39;99938.36;1749170;82;20994;-63
2022/04/29 12:05:26;;;;;;;5.47;2.30;;;;;;;22.87;22.28;99941.66;1749135;82;21047;-63
2022/04/29 12:07:53;;;;;;;4.85;2.77;;;;;;;22.67;22.88;99935.80;1749233;82;21158;-64
2022/04/29 12:10:31;;;;;;;4.65;2.75;;;;;;;22.51;23.28;99937.84;1748990;82;20983;-63
2022/04/29 12:12:59;;;;;;;4.42;2.30;;;;;;;22.44;23.49;99933.08;1749030;82;21433;-64